Time;durP1;ratioP1;P1;durP2;ratioP2;P2;SDS_P1;SDS_P2;PMS_P1;PMS_P2;Temp;Humidity;BMP_temperature;BMP_pressure;BME280_temperature;BME280_humidity;BME280_pressure;Samples;Min_cycle;Max_cycle;Signal;HPM_P1;HPM_P2
2023/02/26 00:01:57;;;;;;;84.38;54.92;;;;;;;6.69;100.00;99858.63;5033001;28;20045;-78
2023/02/26 00:04:23;;;;;;;75.95;56.92;;;;;;;6.75;100.00;99852.56;5032600;28;20103;-78
2023/02/26 00:06:54;;;;;;;78.90;55.38;;;;;;;6.95;100.00;99849.91;5033092;28;20454;-78
2023/02/26 00:09:21;;;;;;;84.65;57.25;;;;;;;7.06;100.00;99853.78;5032462;28;20064;-77
2023/02/26 00:11:49;;;;;;;76.35;54.38;;;;;;;6.99;100.00;99843.22;5032836;28;20096;-78
2023/02/26 00:14:16;;;;;;;74.38;56.88;;;;;;;6.99;100.00;99842.38;5032846;28;20050;-78
2023/02/26 00:16:47;;;;;;;69.07;49.88;;;;;;;6.62;100.00;99832.22;5032647;28;20053;-78
2023/02/26 00:19:16;;;;;;;70.80;48.88;;;;;;;6.62;100.00;99839.31;5032939;28;20054;-78
2023/02/26 00:21:43;;;;;;;62.38;46.17;;;;;;;6.51;100.00;99837.31;5032707;28;20046;-78
2023/02/26 00:24:09;;;;;;;79.28;55.65;;;;;;;6.42;100.00;99847.22;5032633;28;20130;-78
2023/02/26 00:26:36;;;;;;;68.70;54.17;;;;;;;6.57;100.00;99847.88;5032705;28;20058;-77
2023/02/26 00:29:04;;;;;;;66.38;50.67;;;;;;;6.57;100.00;99845.22;5032384;28;20045;-78
2023/02/26 00:31:31;;;;;;;69.85;52.15;;;;;;;6.63;100.00;99843.63;5032471;28;20050;-77
2023/02/26 00:33:59;;;;;;;68.72;52.45;;;;;;;6.58;100.00;99838.91;5032801;28;20049;-77
2023/02/26 00:36:41;;;;;;;69.07;55.00;;;;;;;6.45;100.00;99840.75;5032621;28;20501;-77
2023/02/26 00:39:21;;;;;;;71.13;53.30;;;;;;;6.49;100.00;99836.69;5032625;28;20045;-78
2023/02/26 00:41:48;;;;;;;69.03;54.13;;;;;;;6.27;100.00;99844.75;5034500;28;20053;-77
2023/02/26 00:44:15;;;;;;;76.57;58.63;;;;;;;6.25;100.00;99830.13;5036534;28;20107;-77
2023/02/26 00:46:48;;;;;;;64.00;53.47;;;;;;;6.48;100.00;99830.59;5036190;28;20103;-78
2023/02/26 00:49:27;;;;;;;78.55;57.65;;;;;;;6.48;100.00;99827.16;5036534;28;20057;-78
2023/02/26 00:51:58;;;;;;;66.50;53.58;;;;;;;6.35;100.00;99833.19;5036046;28;20111;-78
2023/02/26 00:54:27;;;;;;;90.63;55.65;;;;;;;6.21;100.00;99826.28;5036422;28;20470;-78
2023/02/26 00:56:55;;;;;;;95.75;58.28;;;;;;;6.16;100.00;99834.78;5036841;28;20049;-78
2023/02/26 00:59:23;;;;;;;90.22;56.35;;;;;;;6.14;100.00;99827.06;5036081;28;20103;-78
2023/02/26 01:01:51;;;;;;;77.82;53.88;;;;;;;6.10;100.00;99833.75;5036191;28;20122;-78
2023/02/26 01:04:20;;;;;;;76.63;52.97;;;;;;;6.21;100.00;99827.09;5035880;28;20106;-78
2023/02/26 01:06:49;;;;;;;93.25;61.25;;;;;;;6.24;100.00;99831.16;5036072;28;20049;-77
2023/02/26 01:09:25;;;;;;;146.77;69.68;;;;;;;6.26;100.00;99832.56;5035613;28;20057;-78
2023/02/26 01:11:53;;;;;;;155.15;76.60;;;;;;;6.34;100.00;99829.75;5035629;28;20049;-78
2023/02/26 01:14:20;;;;;;;152.85;77.03;;;;;;;6.36;100.00;99833.00;5036011;28;20049;-78
2023/02/26 01:16:52;;;;;;;94.60;56.17;;;;;;;6.30;100.00;99823.25;5035664;28;20503;-77
2023/02/26 01:19:26;;;;;;;86.47;56.83;;;;;;;6.37;100.00;99831.97;5035824;28;20053;-78
2023/02/26 01:22:01;;;;;;;163.85;77.00;;;;;;;6.19;100.00;99826.47;5036155;28;20046;-78
2023/02/26 01:24:31;;;;;;;86.38;56.72;;;;;;;6.17;100.00;99825.84;5035724;28;20111;-78
2023/02/26 01:26:58;;;;;;;95.47;63.72;;;;;;;6.25;100.00;99820.41;5035435;28;20521;-77
2023/02/26 01:29:25;;;;;;;107.75;60.45;;;;;;;6.39;100.00;99818.63;5035461;28;20491;-78
2023/02/26 01:31:58;;;;;;;109.78;69.15;;;;;;;6.50;100.00;99827.75;5035698;28;20108;-78
2023/02/26 01:34:30;;;;;;;87.55;56.70;;;;;;;6.56;100.00;99833.03;5035570;28;20100;-78
2023/02/26 01:37:04;;;;;;;82.10;58.70;;;;;;;6.78;100.00;99828.41;5035634;28;20107;-78
2023/02/26 01:39:39;;;;;;;83.57;60.45;;;;;;;6.97;100.00;99833.88;5035576;28;20050;-78
2023/02/26 01:42:17;;;;;;;74.88;55.17;;;;;;;7.00;100.00;99825.56;5035554;28;20045;-78
2023/02/26 01:44:55;;;;;;;83.45;58.47;;;;;;;7.16;100.00;99822.47;5035316;28;20085;-78
2023/02/26 01:47:28;;;;;;;72.80;52.15;;;;;;;7.37;100.00;99817.97;5035503;28;20422;-78
2023/02/26 01:49:56;;;;;;;73.13;52.92;;;;;;;7.27;100.00;99811.28;5035646;28;20045;-78
2023/02/26 01:53:04;;;;;;;73.47;56.67;;;;;;;7.40;100.00;99817.56;5034957;28;20103;-78
2023/02/26 01:55:32;;;;;;;78.72;50.25;;;;;;;7.46;100.00;99819.38;5027532;28;20527;-78
2023/02/26 01:58:01;;;;;;;76.82;54.10;;;;;;;7.45;100.00;99815.13;5035283;28;20053;-78
2023/02/26 02:00:30;;;;;;;68.25;53.67;;;;;;;7.50;100.00;99818.78;5035443;28;20080;-78
2023/02/26 02:02:56;;;;;;;74.00;51.28;;;;;;;7.56;100.00;99806.53;5035373;28;20049;-78
2023/02/26 02:05:28;;;;;;;72.00;52.45;;;;;;;7.67;100.00;99810.38;5035451;28;20501;-78
2023/02/26 02:07:56;;;;;;;75.28;59.35;;;;;;;7.57;100.00;99798.41;5034779;28;20080;-78
2023/02/26 02:10:22;;;;;;;79.65;57.35;;;;;;;7.63;100.00;99795.97;5035226;28;20056;-78
2023/02/26 02:12:58;;;;;;;74.05;55.38;;;;;;;7.72;100.00;99795.53;5035211;28;20115;-78
2023/02/26 02:15:33;;;;;;;73.18;54.80;;;;;;;7.90;100.00;99797.47;5035133;28;20049;-78
2023/02/26 02:18:07;;;;;;;74.18;52.55;;;;;;;8.07;100.00;99797.78;5035180;28;20050;-78
2023/02/26 02:21:06;;;;;;;82.05;53.80;;;;;;;8.03;100.00;99792.13;5035031;28;20045;-78
2023/02/26 02:23:40;;;;;;;92.35;54.03;;;;;;;8.02;100.00;99787.06;5034833;28;20050;-78
2023/02/26 02:26:33;;;;;;;80.38;56.53;;;;;;;7.88;100.00;99782.84;5034770;28;20049;-78
2023/02/26 02:29:31;;;;;;;107.97;69.13;;;;;;;8.14;100.00;99784.53;5034636;28;20053;-78
2023/02/26 02:32:03;;;;;;;181.88;99.53;;;;;;;8.22;100.00;99792.22;5034555;28;20111;-78
2023/02/26 02:34:37;;;;;;;72.43;58.78;;;;;;;8.35;100.00;99783.38;5034715;28;20053;-78
2023/02/26 02:37:10;;;;;;;63.47;52.75;;;;;;;8.75;100.00;99783.13;5034609;28;20111;-78
2023/02/26 02:39:42;;;;;;;150.15;82.28;;;;;;;9.08;100.00;99783.66;5034634;28;20103;-78
2023/02/26 02:42:23;;;;;;;58.10;47.72;;;;;;;9.51;100.00;99784.63;5034620;28;20049;-78
2023/02/26 02:44:56;;;;;;;75.45;53.03;;;;;;;10.06;100.00;99779.25;5034535;28;20057;-78
2023/02/26 02:47:26;;;;;;;91.75;59.92;;;;;;;10.46;100.00;99766.22;5034712;28;20561;-78
2023/02/26 02:49:59;;;;;;;99.75;60.28;;;;;;;10.78;100.00;99773.91;5034528;28;20058;-78
2023/02/26 02:52:31;;;;;;;59.40;51.70;;;;;;;10.97;100.00;99777.25;5034794;28;20126;-78
2023/02/26 02:55:03;;;;;;;52.03;47.30;;;;;;;11.16;100.00;99776.09;5034670;28;20045;-78
2023/02/26 02:57:35;;;;;;;59.25;46.83;;;;;;;11.32;100.00;99777.25;5035109;28;20057;-78
2023/02/26 03:00:07;;;;;;;56.95;50.92;;;;;;;11.57;100.00;99771.63;5034923;28;20049;-78
2023/02/26 03:02:43;;;;;;;43.90;39.30;;;;;;;11.66;100.00;99772.88;5035146;28;20053;-78
2023/02/26 03:05:10;;;;;;;51.35;46.88;;;;;;;12.09;100.00;99762.81;5034392;28;20046;-78
2023/02/26 03:07:45;;;;;;;49.53;44.38;;;;;;;12.74;100.00;99772.16;5034255;28;20060;-78
2023/02/26 03:10:13;;;;;;;35.47;32.15;;;;;;;13.00;100.00;99774.13;5034682;28;20122;-78
2023/02/26 03:12:39;;;;;;;32.50;29.08;;;;;;;13.20;100.00;99770.16;5034715;28;20132;-78
2023/02/26 03:15:07;;;;;;;36.78;32.92;;;;;;;13.48;100.00;99771.88;5034343;28;20111;-78
2023/02/26 03:17:46;;;;;;;29.70;26.55;;;;;;;13.59;100.00;99768.28;5034018;28;20045;-78
2023/02/26 03:20:19;;;;;;;34.35;31.20;;;;;;;13.81;100.00;99772.81;5034677;28;20103;-78
2023/02/26 03:22:53;;;;;;;32.42;28.98;;;;;;;14.52;100.00;99772.72;5034650;28;20579;-78
2023/02/26 03:25:26;;;;;;;37.67;34.22;;;;;;;14.58;100.00;99774.38;5034401;28;20104;-78
2023/02/26 03:28:00;;;;;;;32.95;26.90;;;;;;;14.48;100.00;99763.59;5034559;28;20108;-78
2023/02/26 03:30:34;;;;;;;32.00;26.75;;;;;;;14.53;100.00;99777.03;5034825;28;20100;-78
2023/02/26 03:33:07;;;;;;;31.02;28.08;;;;;;;14.58;100.00;99785.88;5034864;28;20049;-78
2023/02/26 03:35:35;;;;;;;;;;;;;;;14.73;100.00;99777.16;5035115;28;20111;-78
2023/02/26 03:38:07;;;;;;;33.13;25.30;;;;;;;14.71;100.00;99767.81;5034077;28;19976;-78
2023/02/26 03:40:37;;;;;;;32.25;25.70;;;;;;;14.71;100.00;99773.97;5034749;28;20046;-78
2023/02/26 03:43:08;;;;;;;30.83;27.42;;;;;;;14.82;100.00;99788.19;5035024;28;20052;-78
2023/02/26 03:45:37;;;;;;;26.27;23.50;;;;;;;14.87;100.00;99786.38;5034266;28;20053;-78
2023/02/26 03:48:09;;;;;;;25.75;23.35;;;;;;;14.70;100.00;99796.38;5034631;28;20119;-78
2023/02/26 03:50:39;;;;;;;28.43;25.43;;;;;;;14.60;100.00;99801.66;5034478;28;20052;-78
2023/02/26 03:53:11;;;;;;;31.83;25.90;;;;;;;14.49;100.00;99791.91;5034038;28;20050;-78
2023/02/26 03:55:42;;;;;;;27.20;23.48;;;;;;;14.52;100.00;99802.91;5033978;28;20049;-78
2023/02/26 03:58:09;;;;;;;32.87;26.40;;;;;;;14.42;100.00;99798.25;5033892;28;20107;-78
2023/02/26 04:00:41;;;;;;;30.63;24.02;;;;;;;14.37;100.00;99795.56;5034124;28;20045;-78
2023/02/26 04:03:14;;;;;;;27.38;24.55;;;;;;;14.53;100.00;99795.72;5034460;28;20118;-78
2023/02/26 04:05:44;;;;;;;28.88;25.15;;;;;;;14.43;100.00;99789.22;5034109;28;20053;-78
2023/02/26 04:08:11;;;;;;;30.63;24.27;;;;;;;14.74;100.00;99789.47;5034208;28;20061;-78
2023/02/26 04:10:42;;;;;;;31.33;25.98;;;;;;;14.99;93.75;99788.84;5034657;28;20050;-78
2023/02/26 04:13:09;;;;;;;31.40;28.50;;;;;;;15.16;91.94;99804.75;5034068;28;20049;-78
2023/02/26 04:15:36;;;;;;;34.70;30.98;;;;;;;15.06;95.90;99812.69;5033837;28;20045;-78
2023/02/26 04:18:03;;;;;;;28.15;25.15;;;;;;;15.03;99.29;99813.22;5034010;28;20119;-78
2023/02/26 04:20:31;;;;;;;30.35;25.35;;;;;;;15.03;100.00;99816.69;5033396;28;20049;-78
2023/02/26 04:22:58;;;;;;;28.73;25.45;;;;;;;14.85;100.00;99817.88;5033891;28;20111;-78
2023/02/26 04:25:24;;;;;;;28.25;23.92;;;;;;;14.77;100.00;99809.56;5033995;28;20053;-78
2023/02/26 04:27:51;;;;;;;30.48;24.80;;;;;;;14.68;100.00;99811.88;5034123;28;20057;-78
2023/02/26 04:30:18;;;;;;;26.42;23.15;;;;;;;14.68;100.00;99817.22;5034057;28;20408;-78
2023/02/26 04:32:45;;;;;;;28.05;24.23;;;;;;;14.68;100.00;99819.09;5033934;28;20095;-78
2023/02/26 04:35:12;;;;;;;29.75;25.95;;;;;;;14.68;100.00;99813.75;5034167;28;20446;-78
2023/02/26 04:37:40;;;;;;;29.92;23.60;;;;;;;14.63;100.00;99817.19;5034028;28;20132;-78
2023/02/26 04:40:08;;;;;;;32.00;27.95;;;;;;;14.66;100.00;99816.66;5034061;28;20103;-78
2023/02/26 04:42:35;;;;;;;34.08;30.70;;;;;;;14.60;100.00;99815.81;5033465;28;20049;-78
2023/02/26 04:45:01;;;;;;;30.17;26.52;;;;;;;14.47;100.00;99810.88;5034348;28;20057;-78
2023/02/26 04:47:28;;;;;;;30.67;23.10;;;;;;;14.42;100.00;99808.94;5033652;28;20050;-78
2023/02/26 04:49:55;;;;;;;34.45;25.85;;;;;;;14.61;100.00;99804.09;5033395;28;20495;-78
2023/02/26 04:52:22;;;;;;;33.35;30.05;;;;;;;14.49;100.00;99815.94;5033221;28;20050;-78
2023/02/26 04:54:51;;;;;;;31.35;25.02;;;;;;;14.61;100.00;99828.13;5033561;28;20099;-78
2023/02/26 04:57:18;;;;;;;28.70;26.00;;;;;;;14.38;100.00;99829.22;5033428;28;20513;-78
2023/02/26 04:59:44;;;;;;;27.10;23.23;;;;;;;14.40;100.00;99826.28;5033907;28;20049;-78
2023/02/26 05:02:11;;;;;;;30.90;26.35;;;;;;;14.37;100.00;99827.63;5033766;28;20045;-78
2023/02/26 05:04:38;;;;;;;26.23;23.73;;;;;;;14.41;100.00;99817.22;5033895;28;20107;-78
2023/02/26 05:07:05;;;;;;;27.08;24.27;;;;;;;14.34;100.00;99824.63;5033243;28;20045;-78
2023/02/26 05:09:32;;;;;;;27.73;24.80;;;;;;;14.32;100.00;99808.06;5033715;28;20112;-78
2023/02/26 05:12:00;;;;;;;29.90;26.58;;;;;;;14.21;100.00;99825.84;5033693;28;20103;-78
2023/02/26 05:14:27;;;;;;;29.80;22.23;;;;;;;14.19;100.00;99811.91;5033604;28;20050;-78
2023/02/26 05:16:53;;;;;;;26.83;23.02;;;;;;;14.25;100.00;99816.28;5033713;28;20110;-78
2023/02/26 05:19:20;;;;;;;31.05;23.23;;;;;;;14.55;100.00;99801.59;5033180;28;20046;-78
2023/02/26 05:21:48;;;;;;;29.13;26.10;;;;;;;14.63;100.00;99812.63;5033902;28;20105;-78
2023/02/26 05:24:14;;;;;;;29.00;22.40;;;;;;;14.61;100.00;99817.44;5033051;28;20072;-78
2023/02/26 05:26:41;;;;;;;26.25;21.73;;;;;;;14.75;98.96;99812.47;5033460;28;20095;-78
2023/02/26 05:29:09;;;;;;;32.38;22.50;;;;;;;14.85;96.99;99823.22;5035852;28;20107;-78
2023/02/26 05:31:37;;;;;;;33.53;24.50;;;;;;;14.78;97.12;99816.50;5037159;28;20107;-78
2023/02/26 05:34:04;;;;;;;29.83;22.65;;;;;;;14.89;96.44;99831.56;5036977;28;20045;-78
2023/02/26 05:36:30;;;;;;;29.92;21.25;;;;;;;14.84;96.89;99820.81;5037569;28;20049;-78
2023/02/26 05:38:57;;;;;;;28.30;22.58;;;;;;;14.75;98.93;99814.34;5037153;28;20506;-78
2023/02/26 05:41:24;;;;;;;27.65;24.83;;;;;;;14.92;98.41;99814.19;5036607;28;20119;-78
2023/02/26 05:43:50;;;;;;;32.60;23.08;;;;;;;14.98;97.72;99813.19;5037281;28;20054;-78
2023/02/26 05:46:18;;;;;;;29.80;22.95;;;;;;;15.11;96.97;99804.72;5037276;28;20049;-78
2023/02/26 05:48:45;;;;;;;27.55;22.50;;;;;;;14.99;98.66;99806.78;5037126;28;20049;-78
2023/02/26 05:51:12;;;;;;;34.05;24.65;;;;;;;14.90;100.00;99814.47;5036443;28;20045;-78
2023/02/26 05:53:39;;;;;;;33.15;21.83;;;;;;;14.89;100.00;99799.50;5036456;28;20049;-78
2023/02/26 05:56:06;;;;;;;29.88;21.90;;;;;;;15.07;99.69;99817.78;5036651;28;20045;-78
2023/02/26 05:58:33;;;;;;;29.45;22.95;;;;;;;15.00;100.00;99819.06;5036338;28;20053;-78
2023/02/26 06:01:00;;;;;;;30.42;22.50;;;;;;;15.07;100.00;99807.09;5036591;28;20053;-78
2023/02/26 06:03:28;;;;;;;28.25;21.25;;;;;;;15.08;100.00;99819.41;5036609;28;20111;-78
2023/02/26 06:05:55;;;;;;;30.40;21.63;;;;;;;15.07;100.00;99819.66;5036775;28;20423;-78
2023/02/26 06:08:22;;;;;;;31.90;23.27;;;;;;;15.19;100.00;99822.13;5035989;28;20131;-78
2023/02/26 06:10:50;;;;;;;25.95;22.85;;;;;;;15.16;100.00;99833.34;5036350;28;20054;-78
2023/02/26 06:13:17;;;;;;;40.20;25.90;;;;;;;15.19;100.00;99833.66;5035999;28;20049;-78
2023/02/26 06:15:43;;;;;;;36.75;24.17;;;;;;;15.17;100.00;99827.75;5036289;28;20053;-78
2023/02/26 06:18:10;;;;;;;29.10;24.52;;;;;;;15.02;100.00;99838.34;5036107;28;20457;-78
2023/02/26 06:20:38;;;;;;;35.60;23.40;;;;;;;15.17;100.00;99818.94;5036596;28;20072;-78
2023/02/26 06:23:05;;;;;;;32.63;21.98;;;;;;;15.03;100.00;99824.69;5036294;28;20049;-78
2023/02/26 06:25:31;;;;;;;24.55;22.10;;;;;;;15.18;100.00;99833.91;5036318;28;20127;-78
2023/02/26 06:27:58;;;;;;;32.17;24.45;;;;;;;15.14;100.00;99856.88;5036027;28;20057;-78
2023/02/26 06:30:25;;;;;;;28.40;21.70;;;;;;;15.28;100.00;99841.97;5035971;28;20049;-78
2023/02/26 06:32:52;;;;;;;26.10;22.58;;;;;;;15.21;100.00;99846.75;5035905;28;20491;-78
2023/02/26 06:35:18;;;;;;;29.55;22.85;;;;;;;15.29;100.00;99843.63;5035486;28;20053;-78
2023/02/26 06:37:46;;;;;;;28.27;22.33;;;;;;;15.35;100.00;99846.06;5035557;28;20053;-78
2023/02/26 06:40:14;;;;;;;31.48;22.17;;;;;;;15.44;100.00;99840.22;5035396;28;20083;-78
2023/02/26 06:42:40;;;;;;;29.52;23.30;;;;;;;15.31;100.00;99846.81;5036050;28;20099;-78
2023/02/26 06:45:08;;;;;;;34.05;25.23;;;;;;;15.30;100.00;99853.25;5035851;28;20049;-78
2023/02/26 06:47:35;;;;;;;31.73;23.02;;;;;;;15.41;100.00;99857.59;5035485;28;20572;-78
2023/02/26 06:50:02;;;;;;;31.92;23.08;;;;;;;15.50;100.00;99839.19;5035421;28;20466;-78
2023/02/26 06:52:29;;;;;;;31.30;22.73;;;;;;;15.44;100.00;99841.03;5035781;28;20473;-78
2023/02/26 06:54:57;;;;;;;31.85;24.40;;;;;;;15.49;100.00;99858.97;5035336;28;20049;-78
2023/02/26 06:57:24;;;;;;;24.60;20.90;;;;;;;15.20;100.00;99866.56;5035915;28;20103;-78
2023/02/26 06:59:51;;;;;;;35.15;24.83;;;;;;;15.33;100.00;99852.72;5035541;28;20053;-78
2023/02/26 07:02:20;;;;;;;33.78;25.08;;;;;;;15.50;100.00;99845.34;5034812;28;20045;-78
2023/02/26 07:04:47;;;;;;;31.52;25.98;;;;;;;15.54;100.00;99848.31;5035697;28;20408;-78
2023/02/26 07:07:14;;;;;;;30.80;27.55;;;;;;;15.62;100.00;99849.69;5034956;28;20053;-78
2023/02/26 07:09:41;;;;;;;58.53;53.28;;;;;;;15.51;100.00;99838.13;5035290;28;20103;-78
2023/02/26 07:12:10;;;;;;;59.17;53.40;;;;;;;15.67;100.00;99839.00;5034781;28;20049;-78
2023/02/26 07:14:37;;;;;;;53.45;47.95;;;;;;;15.68;100.00;99851.34;5034834;28;20487;-78
2023/02/26 07:17:04;;;;;;;68.22;61.03;;;;;;;15.70;100.00;99839.31;5035746;28;20049;-78
2023/02/26 07:19:30;;;;;;;65.28;58.33;;;;;;;15.73;100.00;99830.78;5035200;28;20489;-78
2023/02/26 07:21:57;;;;;;;36.80;33.03;;;;;;;15.70;100.00;99833.16;5035257;28;20049;-78
2023/02/26 07:24:24;;;;;;;41.85;30.50;;;;;;;15.85;100.00;99835.09;5035228;28;20127;-78
2023/02/26 07:26:51;;;;;;;35.33;27.10;;;;;;;15.91;100.00;99836.72;5034835;28;20053;-78
2023/02/26 07:29:19;;;;;;;41.53;37.38;;;;;;;15.90;100.00;99833.22;5034568;28;20565;-78
2023/02/26 07:31:46;;;;;;;40.88;36.90;;;;;;;15.88;100.00;99840.72;5034495;28;20045;-78
2023/02/26 07:34:12;;;;;;;47.80;38.58;;;;;;;15.82;100.00;99830.25;5035008;28;20049;-78
2023/02/26 07:36:39;;;;;;;35.03;27.73;;;;;;;15.90;100.00;99833.22;5033868;28;20049;-78
2023/02/26 07:39:06;;;;;;;33.63;29.15;;;;;;;15.88;100.00;99839.91;5033627;28;20495;-78
2023/02/26 07:41:32;;;;;;;33.88;30.27;;;;;;;15.93;100.00;99834.59;5034222;28;20045;-78
2023/02/26 07:43:59;;;;;;;31.80;28.63;;;;;;;15.92;100.00;99833.00;5033738;28;20103;-78
2023/02/26 07:46:27;;;;;;;40.17;35.90;;;;;;;15.88;100.00;99842.59;5034080;28;20507;-78
2023/02/26 07:48:54;;;;;;;37.03;30.30;;;;;;;15.85;100.00;99849.28;5034180;28;20110;-78
2023/02/26 07:51:21;;;;;;;37.20;33.72;;;;;;;15.86;100.00;99842.06;5033460;28;20099;-78
2023/02/26 07:53:47;;;;;;;45.63;41.20;;;;;;;15.92;100.00;99841.81;5033785;28;20049;-78
2023/02/26 07:56:14;;;;;;;34.63;31.25;;;;;;;15.89;100.00;99845.03;5033643;28;20057;-78
2023/02/26 07:58:41;;;;;;;35.45;31.75;;;;;;;15.98;100.00;99839.97;5034167;28;20505;-78
2023/02/26 08:01:08;;;;;;;34.55;31.08;;;;;;;15.97;100.00;99847.19;5033735;28;20111;-78
2023/02/26 08:03:36;;;;;;;37.40;31.58;;;;;;;16.01;100.00;99852.84;5033394;28;20501;-78
2023/02/26 08:06:04;;;;;;;42.50;38.53;;;;;;;15.99;100.00;99850.41;5033216;28;20053;-78
2023/02/26 08:08:32;;;;;;;50.78;43.78;;;;;;;16.05;100.00;99851.22;5033138;28;20534;-78
2023/02/26 08:11:00;;;;;;;46.80;38.30;;;;;;;16.10;100.00;99861.16;5033520;28;20053;-78
2023/02/26 08:13:27;;;;;;;54.42;42.50;;;;;;;16.16;100.00;99862.78;5034087;28;20071;-78
2023/02/26 08:15:54;;;;;;;36.97;33.25;;;;;;;16.22;100.00;99846.47;5033534;28;20095;-78
2023/02/26 08:18:21;;;;;;;43.35;38.53;;;;;;;16.27;100.00;99849.13;5034135;28;20486;-78
2023/02/26 08:20:50;;;;;;;45.03;40.60;;;;;;;16.13;100.00;99845.38;5033280;28;20103;-78
2023/02/26 08:23:17;;;;;;;43.35;38.05;;;;;;;16.41;100.00;99849.44;5033599;28;20048;-78
2023/02/26 08:25:44;;;;;;;50.38;44.97;;;;;;;16.53;100.00;99851.88;5033264;28;20103;-78
2023/02/26 08:28:11;;;;;;;37.60;33.75;;;;;;;16.59;100.00;99860.75;5033455;28;20068;-78
2023/02/26 08:30:38;;;;;;;27.48;22.75;;;;;;;16.62;100.00;99866.38;5033408;28;20045;-78
2023/02/26 08:33:05;;;;;;;28.77;23.27;;;;;;;16.65;100.00;99876.56;5033733;28;20057;-78
2023/02/26 08:35:31;;;;;;;35.58;24.48;;;;;;;16.72;100.00;99865.56;5033430;28;20054;-78
2023/02/26 08:37:59;;;;;;;29.90;26.02;;;;;;;16.82;100.00;99860.22;5033583;28;20049;-78
2023/02/26 08:40:26;;;;;;;30.90;23.20;;;;;;;16.88;100.00;99869.09;5033724;28;20099;-78
2023/02/26 08:42:53;;;;;;;26.73;23.63;;;;;;;16.86;100.00;99868.56;5034018;28;20049;-78
2023/02/26 08:45:20;;;;;;;28.52;22.63;;;;;;;17.02;100.00;99870.16;5033641;28;20054;-78
2023/02/26 08:47:46;;;;;;;31.83;23.40;;;;;;;17.15;100.00;99866.94;5033559;28;20127;-78
2023/02/26 08:50:13;;;;;;;28.98;23.10;;;;;;;17.24;100.00;99847.59;5033686;28;20053;-78
2023/02/26 08:52:40;;;;;;;27.08;22.75;;;;;;;17.27;100.00;99858.59;5033739;28;20041;-78
2023/02/26 08:55:09;;;;;;;31.17;25.27;;;;;;;17.31;100.00;99851.63;5034122;28;20057;-78
2023/02/26 08:57:36;;;;;;;29.58;23.35;;;;;;;17.37;100.00;99860.50;5033732;28;20049;-78
2023/02/26 09:00:09;;;;;;;27.35;24.30;;;;;;;17.41;100.00;99861.53;5033703;28;20053;-78
2023/02/26 09:02:36;;;;;;;30.98;24.02;;;;;;;17.52;100.00;99855.09;5034988;28;20061;-78
2023/02/26 09:05:02;;;;;;;35.65;22.30;;;;;;;17.57;100.00;99848.88;5037276;28;20045;-78
2023/02/26 09:07:29;;;;;;;26.85;22.38;;;;;;;17.06;100.00;99857.81;5037007;28;20507;-78
2023/02/26 09:09:56;;;;;;;31.05;21.80;;;;;;;17.61;100.00;99858.81;5037527;28;20423;-78
2023/02/26 09:12:24;;;;;;;31.23;23.63;;;;;;;17.59;100.00;99849.41;5037433;28;20041;-78
2023/02/26 09:14:51;;;;;;;32.35;22.13;;;;;;;17.68;100.00;99850.47;5037642;28;20049;-78
2023/02/26 09:17:18;;;;;;;31.55;23.63;;;;;;;17.65;100.00;99847.53;5037301;28;20053;-77
2023/02/26 09:19:44;;;;;;;30.27;22.33;;;;;;;17.70;100.00;99859.06;5037450;28;20219;-78
2023/02/26 09:22:11;;;;;;;25.65;21.80;;;;;;;17.65;100.00;99852.91;5037767;28;20054;-78
2023/02/26 09:24:38;;;;;;;29.00;23.67;;;;;;;17.76;99.19;99852.59;5037264;28;20561;-78
2023/02/26 09:27:04;;;;;;;38.20;22.83;;;;;;;17.89;97.00;99845.84;5037105;28;20057;-78
2023/02/26 09:29:32;;;;;;;36.15;24.20;;;;;;;18.01;98.11;99845.53;5037434;28;20057;-78
2023/02/26 09:31:59;;;;;;;26.33;23.45;;;;;;;18.13;96.60;99855.97;5037627;28;20049;-78
2023/02/26 09:34:26;;;;;;;51.72;30.58;;;;;;;18.20;95.67;99851.06;5037039;28;20045;-78
2023/02/26 09:36:53;;;;;;;31.17;23.20;;;;;;;18.26;94.34;99866.09;5037407;28;20045;-78
2023/02/26 09:39:19;;;;;;;31.27;23.13;;;;;;;18.18;90.64;99856.72;5037400;28;20049;-78
2023/02/26 09:41:50;;;;;;;29.15;23.00;;;;;;;18.08;90.29;99870.22;5037047;28;20045;-78
2023/02/26 09:44:20;;;;;;;26.08;22.73;;;;;;;17.98;91.42;99859.50;5037289;28;20049;-78
2023/02/26 09:47:02;;;;;;;32.08;23.38;;;;;;;18.14;88.76;99863.72;5037259;28;20050;-78
2023/02/26 09:49:39;;;;;;;32.78;22.38;;;;;;;18.27;88.21;99859.63;5036903;28;20518;-78
2023/02/26 09:52:16;;;;;;;35.80;23.33;;;;;;;18.26;88.32;99871.47;5036585;28;20049;-78
2023/02/26 09:54:46;;;;;;;30.55;22.65;;;;;;;18.28;87.82;99869.31;5037280;28;20107;-78
2023/02/26 09:57:27;;;;;;;25.15;22.58;;;;;;;18.23;86.46;99872.81;5036852;28;20045;-78
2023/02/26 09:59:54;;;;;;;34.00;22.23;;;;;;;18.33;85.72;99869.25;5036484;28;20045;-78
2023/02/26 10:02:33;;;;;;;30.65;22.30;;;;;;;18.34;86.38;99875.47;5036541;28;20053;-78
2023/02/26 10:05:10;;;;;;;34.33;22.95;;;;;;;18.50;84.90;99880.47;5037188;28;20050;-78
2023/02/26 10:07:44;;;;;;;32.75;21.95;;;;;;;18.70;85.82;99881.41;5036633;28;20045;-78
2023/02/26 10:10:21;;;;;;;38.63;24.88;;;;;;;18.66;82.97;99880.34;5037109;28;20077;-78
2023/02/26 10:12:50;;;;;;;35.08;24.83;;;;;;;18.41;82.40;99889.41;5036358;28;20042;-78
2023/02/26 10:15:22;;;;;;;33.58;23.48;;;;;;;18.58;81.04;99883.63;5036361;28;20049;-78
2023/02/26 10:18:04;;;;;;;36.50;22.42;;;;;;;19.11;81.78;99875.72;5037156;28;20103;-78
2023/02/26 10:20:37;;;;;;;34.85;22.00;;;;;;;18.99;80.55;99878.78;5036795;28;20465;-78
2023/02/26 10:23:12;;;;;;;32.90;23.83;;;;;;;18.99;80.67;99866.13;5036910;28;20422;-78
2023/02/26 10:25:42;;;;;;;30.20;23.27;;;;;;;19.01;81.04;99882.00;5036438;28;20045;-78
2023/02/26 10:28:29;;;;;;;31.13;24.38;;;;;;;18.94;79.97;99873.44;5036839;28;20068;-78
2023/02/26 10:31:02;;;;;;;30.55;24.08;;;;;;;19.30;77.09;99863.16;5036917;28;20115;-78
2023/02/26 10:33:39;;;;;;;29.58;23.20;;;;;;;19.16;75.87;99865.72;5036202;28;20050;-78
2023/02/26 10:36:17;;;;;;;30.88;23.30;;;;;;;19.44;74.14;99853.31;5036759;28;20403;-78
2023/02/26 10:38:47;;;;;;;32.00;24.83;;;;;;;19.72;72.26;99864.38;5036320;28;20128;-78
2023/02/26 10:41:18;;;;;;;33.80;24.55;;;;;;;19.90;69.56;99865.50;5036775;28;20103;-78
2023/02/26 10:43:49;;;;;;;35.45;24.05;;;;;;;19.93;69.28;99847.97;5036520;28;20495;-78
2023/02/26 10:46:28;;;;;;;50.08;32.28;;;;;;;20.13;67.84;99847.69;5036701;28;20049;-78
2023/02/26 10:49:28;;;;;;;43.90;30.35;;;;;;;20.04;66.09;99852.13;5036935;28;20493;-78
2023/02/26 10:51:57;;;;;;;47.88;38.08;;;;;;;20.01;65.27;99836.53;5036394;28;20061;-78
2023/02/26 10:54:31;;;;;;;35.05;25.05;;;;;;;19.87;66.55;99842.63;5036466;28;20049;-78
2023/02/26 10:56:57;;;;;;;28.92;23.80;;;;;;;19.76;65.94;99854.63;5036228;28;20068;-78
2023/02/26 10:59:24;;;;;;;29.85;24.52;;;;;;;19.59;66.43;99848.88;5035572;28;20107;-78
2023/02/26 11:01:52;;;;;;;34.92;23.00;;;;;;;19.74;67.17;99848.72;5036345;28;20487;-78
2023/02/26 11:04:23;;;;;;;41.03;25.17;;;;;;;19.72;65.51;99853.59;5036275;28;20068;-78
2023/02/26 11:06:53;;;;;;;31.40;23.25;;;;;;;19.44;66.25;99853.31;5035825;28;20049;-78
2023/02/26 11:09:24;;;;;;;35.15;23.95;;;;;;;19.54;64.37;99827.38;5036057;28;20132;-78
2023/02/26 11:11:53;;;;;;;29.95;24.10;;;;;;;19.59;62.41;99849.66;5035620;28;20049;-78
2023/02/26 11:14:20;;;;;;;35.50;23.85;;;;;;;19.66;62.77;99854.75;5035675;28;20107;-78
2023/02/26 11:16:51;;;;;;;35.92;23.58;;;;;;;19.74;63.33;99856.81;5035699;28;20049;-78
2023/02/26 11:19:25;;;;;;;34.25;23.75;;;;;;;20.11;61.42;99847.97;5036239;28;20115;-78
2023/02/26 11:21:52;;;;;;;36.05;24.40;;;;;;;20.42;60.63;99838.66;5035980;28;20046;-78
2023/02/26 11:24:26;;;;;;;34.20;24.85;;;;;;;20.51;59.21;99834.19;5035574;28;20495;-78